PWSweather.com
Personal Weather Stations
Station Observations
MENWDWX1
Menstrie, ScotlandGB

MenstrieScotlandGB

Lat: 56.148322, Lon: -3.85483

Elevation: 62

Station Type: Davis Vantage Pro 2

High Low Average
Temperature 54.9°F12.7°C 36.6°F2.6°C 46.1°F7.8°C
Dew Point 48.5°F9.2°C 30.5°F-0.8°C 39.5°F4.2°C
Winds 8.1 mph 13.0 kmh Calm Calm 2.0 mph SW3.2 kmh SW
Wind Gusts 13.8 mph22.2 kmh -- 4.0 mph6.4 kmh
Humidity 79% 72% 78%
Pressure 30.27 in1025.1 mb 29.80 in1009.1 mb -
Precipitation 0.04 in1.0 mm - -
Hour Temp Dew Point Humidity Winds Wind Gusts Pressure Precip Precip Rate Daily Precip Total
12:00 AM 45.6°F7.6°C 38.1°F3.4°C 75% 3.5 mph NNW5.6 kmh NNW 5.8 mph9.3 kmh 30.19 in1022.4 mb - 0.00 in0.0 mm 0.00 in0.0 mm
12:05 AM 45.6°F7.6°C 38.1°F3.4°C 75% 1.2 mph NW1.9 kmh NW 2.3 mph3.7 kmh 30.20 in1022.7 mb - 0.00 in0.0 mm 0.00 in0.0 mm
12:10 AM 45.1°F7.3°C 37.3°F2.9°C 74% 2.3 mph SSE3.7 kmh SSE 4.6 mph7.4 kmh 30.20 in1022.7 mb - 0.00 in0.0 mm 0.00 in0.0 mm
12:15 AM 44.2°F6.8°C 37.1°F2.8°C 76% 3.5 mph ESE5.6 kmh ESE 3.5 mph5.6 kmh 30.21 in1023.0 mb - 0.00 in0.0 mm 0.00 in0.0 mm
12:20 AM 43.4°F6.3°C 36.6°F2.6°C 77% 1.2 mph ESE1.9 kmh ESE 2.3 mph3.7 kmh 30.21 in1023.0 mb - 0.00 in0.0 mm 0.00 in0.0 mm
12:25 AM 42.7°F5.9°C 36.4°F2.4°C 78% 1.2 mph ESE1.9 kmh ESE 2.3 mph3.7 kmh 30.21 in1023.0 mb - 0.00 in0.0 mm 0.00 in0.0 mm
12:30 AM 42.1°F5.6°C 35.8°F2.1°C 78% Calm Calm 1.2 mph1.9 kmh 30.21 in1023.0 mb - 0.00 in0.0 mm 0.00 in0.0 mm
12:35 AM 41.8°F5.4°C 35.7°F2.1°C 79% 2.3 mph ESE3.7 kmh ESE 3.5 mph5.6 kmh 30.21 in1023.0 mb - 0.00 in0.0 mm 0.00 in0.0 mm
12:40 AM 41.4°F5.2°C 35.4°F1.9°C 79% Calm Calm -- 30.21 in1023.0 mb - 0.00 in0.0 mm 0.00 in0.0 mm
12:45 AM 41.1°F5.1°C 35.1°F1.7°C 79% Calm Calm -- 30.21 in1023.0 mb - 0.00 in0.0 mm 0.00 in0.0 mm
12:50 AM 40.7°F4.8°C 34.7°F1.5°C 79% Calm Calm -- 30.21 in1023.0 mb - 0.00 in0.0 mm 0.00 in0.0 mm
12:55 AM 40.5°F4.7°C 34.5°F1.4°C 79% Calm Calm -- 30.21 in1023.0 mb - 0.00 in0.0 mm 0.00 in0.0 mm
01:00 AM 40.4°F4.7°C 34.4°F1.3°C 79% Calm Calm -- 30.22 in1023.4 mb - 0.00 in0.0 mm 0.00 in0.0 mm
01:05 AM 40.1°F4.5°C 34.1°F1.2°C 79% Calm Calm -- 30.22 in1023.4 mb - 0.00 in0.0 mm 0.00 in0.0 mm
01:10 AM 39.8°F4.3°C 33.8°F1.0°C 79% Calm Calm -- 30.23 in1023.7 mb - 0.00 in0.0 mm 0.00 in0.0 mm
01:15 AM 39.6°F4.2°C 33.6°F0.9°C 79% Calm Calm -- 30.23 in1023.7 mb - 0.00 in0.0 mm 0.00 in0.0 mm
01:20 AM 39.4°F4.1°C 33.4°F0.8°C 79% Calm Calm 3.5 mph5.6 kmh 30.23 in1023.7 mb - 0.00 in0.0 mm 0.00 in0.0 mm
01:25 AM 39.3°F4.1°C 33.3°F0.7°C 79% Calm Calm -- 30.22 in1023.4 mb - 0.00 in0.0 mm 0.00 in0.0 mm
01:30 AM 39.2°F4.0°C 32.9°F0.5°C 78% 2.3 mph N3.7 kmh N 3.5 mph5.6 kmh 30.22 in1023.4 mb - 0.00 in0.0 mm 0.00 in0.0 mm
01:35 AM 39.1°F3.9°C 32.8°F0.4°C 78% 2.3 mph N3.7 kmh N 3.5 mph5.6 kmh 30.22 in1023.4 mb - 0.00 in0.0 mm 0.00 in0.0 mm
01:40 AM 39.1°F3.9°C 32.8°F0.4°C 78% 2.3 mph WNW3.7 kmh WNW 3.5 mph5.6 kmh 30.23 in1023.7 mb - 0.00 in0.0 mm 0.00 in0.0 mm
01:45 AM 39.1°F3.9°C 32.8°F0.4°C 78% 2.3 mph WNW3.7 kmh WNW 2.3 mph3.7 kmh 30.23 in1023.7 mb - 0.00 in0.0 mm 0.00 in0.0 mm
01:50 AM 39.3°F4.1°C 33.0°F0.6°C 78% 1.2 mph WNW1.9 kmh WNW 3.5 mph5.6 kmh 30.23 in1023.7 mb - 0.00 in0.0 mm 0.00 in0.0 mm
01:55 AM 39.5°F4.2°C 33.2°F0.7°C 78% 3.5 mph W5.6 kmh W 5.8 mph9.3 kmh 30.23 in1023.7 mb - 0.00 in0.0 mm 0.00 in0.0 mm
02:00 AM 40.1°F4.5°C 33.8°F1.0°C 78% 3.5 mph W5.6 kmh W 5.8 mph9.3 kmh 30.23 in1023.7 mb - 0.00 in0.0 mm 0.00 in0.0 mm
02:05 AM 40.6°F4.8°C 34.2°F1.2°C 78% 3.5 mph W5.6 kmh W 3.5 mph5.6 kmh 30.23 in1023.7 mb - 0.00 in0.0 mm 0.00 in0.0 mm
02:10 AM 41.1°F5.1°C 34.8°F1.6°C 78% 5.8 mph W9.3 kmh W 8.1 mph13.0 kmh 30.23 in1023.7 mb - 0.00 in0.0 mm 0.00 in0.0 mm
02:15 AM 41.8°F5.4°C 35.4°F1.9°C 78% 3.5 mph W5.6 kmh W 3.5 mph5.6 kmh 30.23 in1023.7 mb - 0.00 in0.0 mm 0.00 in0.0 mm
02:20 AM 42.3°F5.7°C 35.9°F2.2°C 78% 5.8 mph WSW9.3 kmh WSW 9.2 mph14.8 kmh 30.23 in1023.7 mb - 0.00 in0.0 mm 0.00 in0.0 mm
02:25 AM 42.6°F5.9°C 36.2°F2.3°C 78% 4.6 mph W7.4 kmh W 9.2 mph14.8 kmh 30.23 in1023.7 mb - 0.00 in0.0 mm 0.00 in0.0 mm
02:30 AM 42.9°F6.1°C 36.5°F2.5°C 78% 5.8 mph WSW9.3 kmh WSW 10.4 mph16.7 kmh 30.23 in1023.7 mb - 0.00 in0.0 mm 0.00 in0.0 mm
02:35 AM 43.1°F6.2°C 36.7°F2.6°C 78% 2.3 mph WSW3.7 kmh WSW 3.5 mph5.6 kmh 30.23 in1023.7 mb - 0.00 in0.0 mm 0.00 in0.0 mm
02:40 AM 43.0°F6.1°C 36.3°F2.4°C 77% 2.3 mph W3.7 kmh W 3.5 mph5.6 kmh 30.23 in1023.7 mb - 0.00 in0.0 mm 0.00 in0.0 mm
02:45 AM 42.9°F6.1°C 36.2°F2.3°C 77% 1.2 mph W1.9 kmh W 2.3 mph3.7 kmh 30.23 in1023.7 mb - 0.00 in0.0 mm 0.00 in0.0 mm
02:50 AM 42.9°F6.1°C 36.2°F2.3°C 77% 1.2 mph W1.9 kmh W 2.3 mph3.7 kmh 30.23 in1023.7 mb - 0.00 in0.0 mm 0.00 in0.0 mm
02:55 AM 42.8°F6.0°C 36.1°F2.3°C 77% 2.3 mph NE3.7 kmh NE 3.5 mph5.6 kmh 30.23 in1023.7 mb - 0.00 in0.0 mm 0.00 in0.0 mm
03:00 AM 42.4°F5.8°C 36.0°F2.2°C 78% 3.5 mph E5.6 kmh E 3.5 mph5.6 kmh 30.23 in1023.7 mb - 0.00 in0.0 mm 0.00 in0.0 mm
03:05 AM 41.8°F5.4°C 35.5°F1.9°C 78% 2.3 mph SE3.7 kmh SE 3.5 mph5.6 kmh 30.23 in1023.7 mb - 0.00 in0.0 mm 0.00 in0.0 mm
03:10 AM 41.4°F5.2°C 35.0°F1.7°C 78% 2.3 mph SE3.7 kmh SE 3.5 mph5.6 kmh 30.23 in1023.7 mb - 0.00 in0.0 mm 0.00 in0.0 mm
03:15 AM 40.9°F4.9°C 34.9°F1.6°C 79% 2.3 mph SE3.7 kmh SE 3.5 mph5.6 kmh 30.23 in1023.7 mb - 0.00 in0.0 mm 0.00 in0.0 mm
03:20 AM 40.5°F4.7°C 34.5°F1.4°C 79% 1.2 mph ENE1.9 kmh ENE 2.3 mph3.7 kmh 30.23 in1023.7 mb - 0.00 in0.0 mm 0.00 in0.0 mm
03:25 AM 40.2°F4.6°C 34.2°F1.2°C 79% Calm Calm -- 30.23 in1023.7 mb - 0.00 in0.0 mm 0.00 in0.0 mm
03:30 AM 39.9°F4.4°C 33.9°F1.1°C 79% Calm Calm -- 30.23 in1023.7 mb - 0.00 in0.0 mm 0.00 in0.0 mm
03:35 AM 39.6°F4.2°C 33.6°F0.9°C 79% Calm Calm -- 30.23 in1023.7 mb - 0.00 in0.0 mm 0.00 in0.0 mm
03:40 AM 39.5°F4.2°C 33.5°F0.8°C 79% 2.3 mph SE3.7 kmh SE 3.5 mph5.6 kmh 30.23 in1023.7 mb - 0.00 in0.0 mm 0.00 in0.0 mm
03:45 AM 39.5°F4.2°C 33.5°F0.8°C 79% 1.2 mph SE1.9 kmh SE 3.5 mph5.6 kmh 30.23 in1023.7 mb - 0.00 in0.0 mm 0.00 in0.0 mm
03:50 AM 39.3°F4.1°C 33.4°F0.8°C 79% 1.2 mph SE1.9 kmh SE 1.2 mph1.9 kmh 30.23 in1023.7 mb - 0.00 in0.0 mm 0.00 in0.0 mm
03:55 AM 39.2°F4.0°C 33.2°F0.7°C 79% 2.3 mph SE3.7 kmh SE 3.5 mph5.6 kmh 30.23 in1023.7 mb - 0.00 in0.0 mm 0.00 in0.0 mm
04:00 AM 39.2°F4.0°C 33.2°F0.7°C 79% 2.3 mph SE3.7 kmh SE 2.3 mph3.7 kmh 30.23 in1023.7 mb - 0.00 in0.0 mm 0.00 in0.0 mm
04:05 AM 39.2°F4.0°C 33.2°F0.7°C 79% 1.2 mph SE1.9 kmh SE 2.3 mph3.7 kmh 30.23 in1023.7 mb - 0.00 in0.0 mm 0.00 in0.0 mm
04:10 AM 39.1°F3.9°C 33.1°F0.6°C 79% 1.2 mph SSE1.9 kmh SSE 3.5 mph5.6 kmh 30.23 in1023.7 mb - 0.00 in0.0 mm 0.00 in0.0 mm
04:15 AM 39.2°F4.0°C 32.9°F0.5°C 78% 1.2 mph WNW1.9 kmh WNW 3.5 mph5.6 kmh 30.23 in1023.7 mb - 0.00 in0.0 mm 0.00 in0.0 mm
04:20 AM 39.4°F4.1°C 33.1°F0.6°C 78% 1.2 mph N1.9 kmh N 2.3 mph3.7 kmh 30.23 in1023.7 mb - 0.00 in0.0 mm 0.00 in0.0 mm
04:25 AM 39.5°F4.2°C 33.2°F0.7°C 78% 1.2 mph N1.9 kmh N 2.3 mph3.7 kmh 30.23 in1023.7 mb - 0.00 in0.0 mm 0.00 in0.0 mm
04:30 AM 39.6°F4.2°C 33.3°F0.7°C 78% 1.2 mph NNW1.9 kmh NNW 3.5 mph5.6 kmh 30.23 in1023.7 mb - 0.00 in0.0 mm 0.00 in0.0 mm
04:35 AM 39.7°F4.3°C 33.4°F0.8°C 78% 2.3 mph WSW3.7 kmh WSW 3.5 mph5.6 kmh 30.23 in1023.7 mb - 0.00 in0.0 mm 0.00 in0.0 mm
04:40 AM 39.6°F4.2°C 33.3°F0.7°C 78% Calm Calm -- 30.23 in1023.7 mb - 0.00 in0.0 mm 0.00 in0.0 mm
04:45 AM 39.6°F4.2°C 33.3°F0.7°C 78% Calm Calm -- 30.23 in1023.7 mb - 0.00 in0.0 mm 0.00 in0.0 mm
04:50 AM 39.5°F4.2°C 33.2°F0.7°C 78% Calm Calm -- 30.23 in1023.7 mb - 0.00 in0.0 mm 0.00 in0.0 mm
04:55 AM 39.6°F4.2°C 33.3°F0.7°C 78% 1.2 mph WSW1.9 kmh WSW 3.5 mph5.6 kmh 30.23 in1023.7 mb - 0.00 in0.0 mm 0.00 in0.0 mm
05:00 AM 39.5°F4.2°C 33.2°F0.7°C 78% 2.3 mph WSW3.7 kmh WSW 3.5 mph5.6 kmh 30.24 in1024.0 mb - 0.00 in0.0 mm 0.00 in0.0 mm
05:05 AM 39.5°F4.2°C 33.5°F0.8°C 79% Calm Calm 1.2 mph1.9 kmh 30.24 in1024.0 mb - 0.00 in0.0 mm 0.00 in0.0 mm
05:10 AM 39.1°F3.9°C 32.9°F0.5°C 78% Calm Calm 2.3 mph3.7 kmh 30.24 in1024.0 mb - 0.00 in0.0 mm 0.00 in0.0 mm
05:15 AM 38.8°F3.8°C 32.9°F0.5°C 79% 1.2 mph S1.9 kmh S 1.2 mph1.9 kmh 30.25 in1024.4 mb - 0.00 in0.0 mm 0.00 in0.0 mm
05:20 AM 38.5°F3.6°C 32.6°F0.3°C 79% Calm Calm -- 30.24 in1024.0 mb - 0.00 in0.0 mm 0.00 in0.0 mm
05:25 AM 38.3°F3.5°C 32.4°F0.2°C 79% Calm Calm 1.2 mph1.9 kmh 30.25 in1024.4 mb - 0.00 in0.0 mm 0.00 in0.0 mm
05:30 AM 38.1°F3.4°C 32.1°F0.1°C 79% Calm Calm -- 30.25 in1024.4 mb - 0.00 in0.0 mm 0.00 in0.0 mm
05:35 AM 38.0°F3.3°C 32.1°F0.1°C 79% 1.2 mph S1.9 kmh S 3.5 mph5.6 kmh 30.25 in1024.4 mb - 0.00 in0.0 mm 0.00 in0.0 mm
05:40 AM 38.0°F3.3°C 32.1°F0.1°C 79% 1.2 mph S1.9 kmh S 2.3 mph3.7 kmh 30.24 in1024.0 mb - 0.00 in0.0 mm 0.00 in0.0 mm
05:45 AM 37.8°F3.2°C 31.6°F-0.2°C 78% 1.2 mph S1.9 kmh S 2.3 mph3.7 kmh 30.25 in1024.4 mb - 0.00 in0.0 mm 0.00 in0.0 mm
05:50 AM 37.6°F3.1°C 31.4°F-0.3°C 78% Calm Calm 1.2 mph1.9 kmh 30.25 in1024.4 mb - 0.00 in0.0 mm 0.00 in0.0 mm
05:55 AM 37.3°F2.9°C 31.4°F-0.3°C 79% Calm Calm -- 30.25 in1024.4 mb - 0.00 in0.0 mm 0.00 in0.0 mm
06:00 AM 37.0°F2.8°C 31.1°F-0.5°C 79% Calm Calm 1.2 mph1.9 kmh 30.25 in1024.4 mb - 0.00 in0.0 mm 0.00 in0.0 mm
06:05 AM 36.9°F2.7°C 30.6°F-0.8°C 78% 1.2 mph S1.9 kmh S 2.3 mph3.7 kmh 30.25 in1024.4 mb - 0.00 in0.0 mm 0.00 in0.0 mm
06:10 AM 36.8°F2.7°C 30.6°F-0.8°C 78% 1.2 mph S1.9 kmh S 2.3 mph3.7 kmh 30.25 in1024.4 mb - 0.00 in0.0 mm 0.00 in0.0 mm
06:15 AM 36.9°F2.7°C 30.7°F-0.7°C 78% Calm Calm -- 30.25 in1024.4 mb - 0.00 in0.0 mm 0.00 in0.0 mm
06:20 AM 36.9°F2.7°C 30.7°F-0.7°C 78% Calm Calm -- 30.25 in1024.4 mb - 0.00 in0.0 mm 0.00 in0.0 mm
06:25 AM 36.9°F2.7°C 30.7°F-0.7°C 78% Calm Calm -- 30.26 in1024.7 mb - 0.00 in0.0 mm 0.00 in0.0 mm
06:30 AM 36.7°F2.6°C 30.8°F-0.7°C 79% Calm Calm -- 30.26 in1024.7 mb - 0.00 in0.0 mm 0.00 in0.0 mm
06:35 AM 36.6°F2.6°C 30.7°F-0.7°C 79% Calm Calm 1.2 mph1.9 kmh 30.26 in1024.7 mb - 0.00 in0.0 mm 0.00 in0.0 mm
06:40 AM 36.6°F2.6°C 30.7°F-0.7°C 79% Calm Calm -- 30.26 in1024.7 mb - 0.00 in0.0 mm 0.00 in0.0 mm
06:45 AM 36.7°F2.6°C 30.5°F-0.8°C 78% 1.2 mph N1.9 kmh N 3.5 mph5.6 kmh 30.25 in1024.4 mb - 0.00 in0.0 mm 0.00 in0.0 mm
06:50 AM 37.4°F3.0°C 31.2°F-0.4°C 78% 2.3 mph WSW3.7 kmh WSW 3.5 mph5.6 kmh 30.26 in1024.7 mb - 0.00 in0.0 mm 0.00 in0.0 mm
06:55 AM 38.2°F3.4°C 32.2°F0.1°C 79% Calm Calm 1.2 mph1.9 kmh 30.26 in1024.7 mb - 0.00 in0.0 mm 0.00 in0.0 mm
07:00 AM 39.3°F4.1°C 33.0°F0.6°C 78% 2.3 mph WSW3.7 kmh WSW 4.6 mph7.4 kmh 30.26 in1024.7 mb - 0.00 in0.0 mm 0.00 in0.0 mm
07:05 AM 39.7°F4.3°C 33.4°F0.8°C 78% 1.2 mph SSE1.9 kmh SSE 2.3 mph3.7 kmh 30.26 in1024.7 mb - 0.00 in0.0 mm 0.00 in0.0 mm
07:10 AM 39.6°F4.2°C 33.3°F0.7°C 78% 1.2 mph SSE1.9 kmh SSE 2.3 mph3.7 kmh 30.26 in1024.7 mb - 0.00 in0.0 mm 0.00 in0.0 mm
07:15 AM 39.6°F4.2°C 33.3°F0.7°C 78% 1.2 mph SSE1.9 kmh SSE 2.3 mph3.7 kmh 30.26 in1024.7 mb - 0.00 in0.0 mm 0.00 in0.0 mm
07:20 AM 39.8°F4.3°C 33.8°F1.0°C 79% 2.3 mph SSE3.7 kmh SSE 3.5 mph5.6 kmh 30.26 in1024.7 mb - 0.00 in0.0 mm 0.00 in0.0 mm
07:25 AM 40.1°F4.5°C 33.8°F1.0°C 78% 1.2 mph S1.9 kmh S 2.3 mph3.7 kmh 30.26 in1024.7 mb - 0.00 in0.0 mm 0.00 in0.0 mm
07:30 AM 40.3°F4.6°C 34.3°F1.3°C 79% Calm Calm 1.2 mph1.9 kmh 30.27 in1025.1 mb - 0.00 in0.0 mm 0.00 in0.0 mm
07:35 AM 40.5°F4.7°C 34.5°F1.4°C 79% 1.2 mph S1.9 kmh S 2.3 mph3.7 kmh 30.27 in1025.1 mb - 0.00 in0.0 mm 0.00 in0.0 mm
07:40 AM 40.6°F4.8°C 34.6°F1.4°C 79% 1.2 mph S1.9 kmh S 1.2 mph1.9 kmh 30.27 in1025.1 mb - 0.00 in0.0 mm 0.00 in0.0 mm
07:45 AM 40.7°F4.8°C 34.4°F1.3°C 78% Calm Calm -- 30.27 in1025.1 mb - 0.00 in0.0 mm 0.00 in0.0 mm
07:50 AM 40.8°F4.9°C 34.5°F1.4°C 78% Calm Calm -- 30.26 in1024.7 mb - 0.00 in0.0 mm 0.00 in0.0 mm
07:55 AM 41.0°F5.0°C 34.7°F1.5°C 78% 1.2 mph S1.9 kmh S 2.3 mph3.7 kmh 30.26 in1024.7 mb - 0.00 in0.0 mm 0.00 in0.0 mm
08:00 AM 41.2°F5.1°C 34.8°F1.6°C 78% Calm Calm -- 30.26 in1024.7 mb - 0.00 in0.0 mm 0.00 in0.0 mm
08:05 AM 41.4°F5.2°C 35.0°F1.7°C 78% Calm Calm -- 30.26 in1024.7 mb - 0.00 in0.0 mm 0.00 in0.0 mm
08:10 AM 41.6°F5.3°C 35.2°F1.8°C 78% Calm Calm -- 30.26 in1024.7 mb - 0.00 in0.0 mm 0.00 in0.0 mm
08:15 AM 41.9°F5.5°C 35.5°F1.9°C 78% 1.2 mph SW1.9 kmh SW 2.3 mph3.7 kmh 30.26 in1024.7 mb - 0.00 in0.0 mm 0.00 in0.0 mm
08:20 AM 42.2°F5.7°C 35.9°F2.2°C 78% 2.3 mph WSW3.7 kmh WSW 3.5 mph5.6 kmh 30.26 in1024.7 mb - 0.00 in0.0 mm 0.00 in0.0 mm
08:25 AM 42.6°F5.9°C 36.2°F2.3°C 78% 2.3 mph WSW3.7 kmh WSW 3.5 mph5.6 kmh 30.26 in1024.7 mb - 0.00 in0.0 mm 0.00 in0.0 mm
08:30 AM 43.1°F6.2°C 36.7°F2.6°C 78% 1.2 mph SW1.9 kmh SW 3.5 mph5.6 kmh 30.26 in1024.7 mb - 0.00 in0.0 mm 0.00 in0.0 mm
08:35 AM 43.5°F6.4°C 37.1°F2.8°C 78% 2.3 mph WSW3.7 kmh WSW 3.5 mph5.6 kmh 30.25 in1024.4 mb - 0.00 in0.0 mm 0.00 in0.0 mm
08:40 AM 44.0°F6.7°C 37.6°F3.1°C 78% 1.2 mph WSW1.9 kmh WSW 2.3 mph3.7 kmh 30.25 in1024.4 mb - 0.00 in0.0 mm 0.00 in0.0 mm
08:45 AM 44.3°F6.8°C 38.2°F3.4°C 79% Calm Calm 2.3 mph3.7 kmh 30.26 in1024.7 mb - 0.00 in0.0 mm 0.00 in0.0 mm
08:50 AM 44.6°F7.0°C 38.4°F3.6°C 79% Calm Calm 1.2 mph1.9 kmh 30.26 in1024.7 mb - 0.00 in0.0 mm 0.00 in0.0 mm
08:55 AM 44.7°F7.1°C 38.3°F3.5°C 78% 1.2 mph S1.9 kmh S 2.3 mph3.7 kmh 30.26 in1024.7 mb - 0.00 in0.0 mm 0.00 in0.0 mm
09:00 AM 44.8°F7.1°C 38.7°F3.7°C 79% 1.2 mph SSE1.9 kmh SSE 2.3 mph3.7 kmh 30.25 in1024.4 mb - 0.00 in0.0 mm 0.00 in0.0 mm
09:05 AM 45.1°F7.3°C 38.9°F3.8°C 79% 3.5 mph SW5.6 kmh SW 4.6 mph7.4 kmh 30.26 in1024.7 mb - 0.00 in0.0 mm 0.00 in0.0 mm
09:10 AM 45.3°F7.4°C 38.9°F3.8°C 78% 2.3 mph W3.7 kmh W 3.5 mph5.6 kmh 30.26 in1024.7 mb - 0.00 in0.0 mm 0.00 in0.0 mm
09:15 AM 45.6°F7.6°C 39.1°F3.9°C 78% 2.3 mph W3.7 kmh W 6.9 mph11.1 kmh 30.26 in1024.7 mb - 0.00 in0.0 mm 0.00 in0.0 mm
09:20 AM 45.9°F7.7°C 39.4°F4.1°C 78% 2.3 mph WSW3.7 kmh WSW 9.2 mph14.8 kmh 30.25 in1024.4 mb - 0.00 in0.0 mm 0.00 in0.0 mm
09:25 AM 46.2°F7.9°C 39.7°F4.3°C 78% 3.5 mph WSW5.6 kmh WSW 3.5 mph5.6 kmh 30.25 in1024.4 mb - 0.00 in0.0 mm 0.00 in0.0 mm
09:30 AM 46.5°F8.1°C 40.0°F4.4°C 78% 4.6 mph WSW7.4 kmh WSW 6.9 mph11.1 kmh 30.25 in1024.4 mb - 0.00 in0.0 mm 0.00 in0.0 mm
09:35 AM 46.7°F8.2°C 39.9°F4.4°C 77% 3.5 mph WSW5.6 kmh WSW 6.9 mph11.1 kmh 30.25 in1024.4 mb - 0.00 in0.0 mm 0.00 in0.0 mm
09:40 AM 46.8°F8.2°C 40.0°F4.4°C 77% 2.3 mph W3.7 kmh W 6.9 mph11.1 kmh 30.25 in1024.4 mb - 0.00 in0.0 mm 0.00 in0.0 mm
09:45 AM 46.9°F8.3°C 40.1°F4.5°C 77% 2.3 mph WSW3.7 kmh WSW 3.5 mph5.6 kmh 30.25 in1024.4 mb - 0.00 in0.0 mm 0.00 in0.0 mm
09:50 AM 47.0°F8.3°C 40.2°F4.6°C 77% 2.3 mph WSW3.7 kmh WSW 6.9 mph11.1 kmh 30.25 in1024.4 mb - 0.00 in0.0 mm 0.00 in0.0 mm
09:55 AM 47.2°F8.4°C 40.4°F4.7°C 77% 2.3 mph W3.7 kmh W 3.5 mph5.6 kmh 30.25 in1024.4 mb - 0.00 in0.0 mm 0.00 in0.0 mm
10:00 AM 47.5°F8.6°C 40.7°F4.8°C 77% 3.5 mph W5.6 kmh W 3.5 mph5.6 kmh 30.25 in1024.4 mb - 0.00 in0.0 mm 0.00 in0.0 mm
10:05 AM 47.8°F8.8°C 40.9°F4.9°C 77% 3.5 mph WSW5.6 kmh WSW 6.9 mph11.1 kmh 30.25 in1024.4 mb - 0.00 in0.0 mm 0.00 in0.0 mm
10:10 AM 48.0°F8.9°C 41.2°F5.1°C 77% 5.8 mph W9.3 kmh W 10.4 mph16.7 kmh 30.25 in1024.4 mb - 0.00 in0.0 mm 0.00 in0.0 mm
10:15 AM 48.1°F8.9°C 41.2°F5.1°C 77% 3.5 mph WSW5.6 kmh WSW 4.6 mph7.4 kmh 30.25 in1024.4 mb - 0.00 in0.0 mm 0.00 in0.0 mm
10:20 AM 48.1°F8.9°C 41.2°F5.1°C 77% 2.3 mph WNW3.7 kmh WNW 3.5 mph5.6 kmh 30.25 in1024.4 mb - 0.00 in0.0 mm 0.00 in0.0 mm
10:25 AM 48.2°F9.0°C 41.3°F5.2°C 77% 2.3 mph NW3.7 kmh NW 5.8 mph9.3 kmh 30.25 in1024.4 mb - 0.00 in0.0 mm 0.00 in0.0 mm
10:30 AM 48.2°F9.0°C 41.3°F5.2°C 77% 3.5 mph W5.6 kmh W 5.8 mph9.3 kmh 30.25 in1024.4 mb - 0.00 in0.0 mm 0.00 in0.0 mm
10:35 AM 48.3°F9.1°C 41.4°F5.2°C 77% 2.3 mph WSW3.7 kmh WSW 3.5 mph5.6 kmh 30.25 in1024.4 mb - 0.00 in0.0 mm 0.00 in0.0 mm
10:40 AM 48.3°F9.1°C 41.4°F5.2°C 77% 4.6 mph W7.4 kmh W 6.9 mph11.1 kmh 30.25 in1024.4 mb - 0.00 in0.0 mm 0.00 in0.0 mm
10:45 AM 48.4°F9.1°C 41.5°F5.3°C 77% 3.5 mph WSW5.6 kmh WSW 3.5 mph5.6 kmh 30.25 in1024.4 mb - 0.00 in0.0 mm 0.00 in0.0 mm
10:50 AM 48.5°F9.2°C 41.6°F5.3°C 77% 2.3 mph WSW3.7 kmh WSW 3.5 mph5.6 kmh 30.24 in1024.0 mb - 0.00 in0.0 mm 0.00 in0.0 mm
10:55 AM 48.3°F9.1°C 41.4°F5.2°C 77% 3.5 mph SW5.6 kmh SW 5.8 mph9.3 kmh 30.24 in1024.0 mb - 0.00 in0.0 mm 0.00 in0.0 mm
11:00 AM 48.2°F9.0°C 41.3°F5.2°C 77% 3.5 mph SW5.6 kmh SW 3.5 mph5.6 kmh 30.24 in1024.0 mb - 0.00 in0.0 mm 0.00 in0.0 mm
11:05 AM 48.3°F9.1°C 41.4°F5.2°C 77% 2.3 mph WSW3.7 kmh WSW 3.5 mph5.6 kmh 30.24 in1024.0 mb - 0.00 in0.0 mm 0.00 in0.0 mm
11:10 AM 48.6°F9.2°C 41.7°F5.4°C 77% 3.5 mph WSW5.6 kmh WSW 8.1 mph13.0 kmh 30.24 in1024.0 mb - 0.00 in0.0 mm 0.00 in0.0 mm
11:15 AM 48.9°F9.4°C 42.0°F5.6°C 77% 3.5 mph W5.6 kmh W 6.9 mph11.1 kmh 30.23 in1023.7 mb - 0.00 in0.0 mm 0.00 in0.0 mm
11:20 AM 49.2°F9.6°C 42.3°F5.7°C 77% 5.8 mph WSW9.3 kmh WSW 6.9 mph11.1 kmh 30.23 in1023.7 mb - 0.00 in0.0 mm 0.00 in0.0 mm
11:25 AM 49.7°F9.8°C 42.4°F5.8°C 76% 3.5 mph WSW5.6 kmh WSW 3.5 mph5.6 kmh 30.23 in1023.7 mb - 0.00 in0.0 mm 0.00 in0.0 mm
11:30 AM 50.0°F10.0°C 42.4°F5.8°C 75% 4.6 mph W7.4 kmh W 5.8 mph9.3 kmh 30.23 in1023.7 mb - 0.00 in0.0 mm 0.00 in0.0 mm
11:35 AM 50.2°F10.1°C 42.6°F5.9°C 75% 3.5 mph W5.6 kmh W 5.8 mph9.3 kmh 30.22 in1023.4 mb - 0.00 in0.0 mm 0.00 in0.0 mm
11:40 AM 50.3°F10.2°C 42.3°F5.7°C 74% 4.6 mph W7.4 kmh W 6.9 mph11.1 kmh 30.22 in1023.4 mb - 0.00 in0.0 mm 0.00 in0.0 mm
11:45 AM 50.1°F10.1°C 42.1°F5.6°C 74% 1.2 mph W1.9 kmh W 3.5 mph5.6 kmh 30.23 in1023.7 mb - 0.00 in0.0 mm 0.00 in0.0 mm
11:50 AM 50.1°F10.1°C 42.1°F5.6°C 74% 2.3 mph W3.7 kmh W 3.5 mph5.6 kmh 30.22 in1023.4 mb - 0.00 in0.0 mm 0.00 in0.0 mm
11:55 AM 50.1°F10.1°C 42.1°F5.6°C 74% 3.5 mph WNW5.6 kmh WNW 3.5 mph5.6 kmh 30.22 in1023.4 mb - 0.00 in0.0 mm 0.00 in0.0 mm
12:00 PM 50.1°F10.1°C 41.5°F5.3°C 72% 1.2 mph WSW1.9 kmh WSW 3.5 mph5.6 kmh 30.22 in1023.4 mb - 0.00 in0.0 mm 0.00 in0.0 mm
12:05 PM 50.1°F10.1°C 41.4°F5.2°C 72% 2.3 mph WSW3.7 kmh WSW 5.8 mph9.3 kmh 30.22 in1023.4 mb - 0.00 in0.0 mm 0.00 in0.0 mm
12:10 PM 50.3°F10.2°C 42.0°F5.6°C 73% 2.3 mph SW3.7 kmh SW 3.5 mph5.6 kmh 30.21 in1023.0 mb - 0.00 in0.0 mm 0.00 in0.0 mm
12:15 PM 50.4°F10.2°C 42.1°F5.6°C 73% 2.3 mph W3.7 kmh W 5.8 mph9.3 kmh 30.21 in1023.0 mb - 0.00 in0.0 mm 0.00 in0.0 mm
12:20 PM 50.4°F10.2°C 42.1°F5.6°C 73% 2.3 mph WSW3.7 kmh WSW 3.5 mph5.6 kmh 30.21 in1023.0 mb - 0.00 in0.0 mm 0.00 in0.0 mm
12:25 PM 50.3°F10.2°C 42.0°F5.6°C 73% 2.3 mph WSW3.7 kmh WSW 2.3 mph3.7 kmh 30.21 in1023.0 mb - 0.00 in0.0 mm 0.00 in0.0 mm
12:30 PM 50.3°F10.2°C 42.0°F5.6°C 73% 2.3 mph WNW3.7 kmh WNW 5.8 mph9.3 kmh 30.21 in1023.0 mb - 0.00 in0.0 mm 0.00 in0.0 mm
12:35 PM 50.4°F10.2°C 42.1°F5.6°C 73% 2.3 mph WSW3.7 kmh WSW 2.3 mph3.7 kmh 30.20 in1022.7 mb - 0.00 in0.0 mm 0.00 in0.0 mm
12:40 PM 50.5°F10.3°C 42.5°F5.8°C 74% 4.6 mph WSW7.4 kmh WSW 8.1 mph13.0 kmh 30.21 in1023.0 mb - 0.00 in0.0 mm 0.00 in0.0 mm
12:45 PM 50.5°F10.3°C 42.5°F5.8°C 74% 4.6 mph W7.4 kmh W 6.9 mph11.1 kmh 30.21 in1023.0 mb - 0.00 in0.0 mm 0.00 in0.0 mm
12:50 PM 50.3°F10.2°C 42.3°F5.7°C 74% 5.8 mph W9.3 kmh W 9.2 mph14.8 kmh 30.20 in1022.7 mb - 0.00 in0.0 mm 0.00 in0.0 mm
12:55 PM 50.1°F10.1°C 42.2°F5.7°C 74% 2.3 mph W3.7 kmh W 8.1 mph13.0 kmh 30.20 in1022.7 mb - 0.00 in0.0 mm 0.00 in0.0 mm
01:00 PM 50.2°F10.1°C 42.6°F5.9°C 75% 2.3 mph W3.7 kmh W 3.5 mph5.6 kmh 30.19 in1022.4 mb - 0.00 in0.0 mm 0.00 in0.0 mm
01:05 PM 50.1°F10.1°C 42.5°F5.8°C 75% 2.3 mph W3.7 kmh W 5.8 mph9.3 kmh 30.19 in1022.4 mb - 0.00 in0.0 mm 0.00 in0.0 mm
01:10 PM 50.1°F10.1°C 42.8°F6.0°C 76% 2.3 mph W3.7 kmh W 6.9 mph11.1 kmh 30.19 in1022.4 mb - 0.00 in0.0 mm 0.00 in0.0 mm
01:15 PM 50.1°F10.1°C 42.5°F5.8°C 75% 2.3 mph WSW3.7 kmh WSW 3.5 mph5.6 kmh 30.19 in1022.4 mb - 0.00 in0.0 mm 0.00 in0.0 mm
01:20 PM 50.1°F10.1°C 42.4°F5.8°C 75% 2.3 mph WSW3.7 kmh WSW 3.5 mph5.6 kmh 30.18 in1022.0 mb - 0.00 in0.0 mm 0.00 in0.0 mm
01:25 PM 50.1°F10.1°C 42.8°F6.0°C 76% 1.2 mph WSW1.9 kmh WSW 3.5 mph5.6 kmh 30.18 in1022.0 mb - 0.00 in0.0 mm 0.00 in0.0 mm
01:30 PM 50.2°F10.1°C 42.9°F6.1°C 76% 1.2 mph W1.9 kmh W 2.3 mph3.7 kmh 30.18 in1022.0 mb - 0.00 in0.0 mm 0.00 in0.0 mm
01:35 PM 50.2°F10.1°C 42.9°F6.1°C 76% 2.3 mph WSW3.7 kmh WSW 3.5 mph5.6 kmh 30.18 in1022.0 mb - 0.00 in0.0 mm 0.00 in0.0 mm
01:40 PM 50.1°F10.1°C 43.2°F6.2°C 77% 2.3 mph SW3.7 kmh SW 2.3 mph3.7 kmh 30.18 in1022.0 mb - 0.00 in0.0 mm 0.00 in0.0 mm
01:45 PM 50.0°F10.0°C 42.7°F5.9°C 76% 1.2 mph SW1.9 kmh SW 2.3 mph3.7 kmh 30.17 in1021.7 mb - 0.00 in0.0 mm 0.00 in0.0 mm
01:50 PM 49.9°F9.9°C 43.0°F6.1°C 77% 1.2 mph SW1.9 kmh SW 2.3 mph3.7 kmh 30.17 in1021.7 mb - 0.00 in0.0 mm 0.00 in0.0 mm
01:55 PM 50.0°F10.0°C 43.4°F6.3°C 78% 1.2 mph SW1.9 kmh SW 2.3 mph3.7 kmh 30.17 in1021.7 mb - 0.00 in0.0 mm 0.00 in0.0 mm
02:00 PM 50.0°F10.0°C 43.4°F6.3°C 78% 1.2 mph SW1.9 kmh SW 2.3 mph3.7 kmh 30.17 in1021.7 mb - 0.00 in0.0 mm 0.00 in0.0 mm
02:05 PM 49.7°F9.8°C 42.8°F6.0°C 77% 1.2 mph W1.9 kmh W 2.3 mph3.7 kmh 30.16 in1021.3 mb - 0.00 in0.0 mm 0.00 in0.0 mm
02:10 PM 49.6°F9.8°C 43.0°F6.1°C 78% Calm Calm -- 30.16 in1021.3 mb - 0.00 in0.0 mm 0.00 in0.0 mm
02:15 PM 49.6°F9.8°C 43.0°F6.1°C 78% Calm Calm -- 30.15 in1021.0 mb - 0.00 in0.0 mm 0.00 in0.0 mm
02:20 PM 49.4°F9.7°C 42.8°F6.0°C 78% Calm Calm -- 30.15 in1021.0 mb - 0.01 in0.3 mm 0.01 in0.3 mm
02:25 PM 49.5°F9.7°C 42.9°F6.1°C 78% Calm Calm -- 30.14 in1020.7 mb - 0.00 in0.0 mm 0.01 in0.3 mm
02:30 PM 49.5°F9.7°C 42.9°F6.1°C 78% Calm Calm -- 30.14 in1020.7 mb - 0.00 in0.0 mm 0.01 in0.3 mm
02:35 PM 49.4°F9.7°C 42.8°F6.0°C 78% Calm Calm 1.2 mph1.9 kmh 30.14 in1020.7 mb - 0.00 in0.0 mm 0.01 in0.3 mm
02:40 PM 49.4°F9.7°C 42.8°F6.0°C 78% 2.3 mph W3.7 kmh W 3.5 mph5.6 kmh 30.14 in1020.7 mb - 0.00 in0.0 mm 0.01 in0.3 mm
02:45 PM 49.2°F9.6°C 42.6°F5.9°C 78% 1.2 mph W1.9 kmh W 2.3 mph3.7 kmh 30.13 in1020.3 mb - 0.00 in0.0 mm 0.01 in0.3 mm
02:50 PM 49.2°F9.6°C 42.6°F5.9°C 78% Calm Calm -- 30.13 in1020.3 mb - 0.00 in0.0 mm 0.01 in0.3 mm
02:55 PM 49.2°F9.6°C 42.6°F5.9°C 78% Calm Calm -- 30.12 in1020.0 mb - 0.01 in0.3 mm 0.02 in0.5 mm
03:00 PM 49.1°F9.5°C 42.5°F5.8°C 78% Calm Calm -- 30.12 in1020.0 mb - 0.00 in0.0 mm 0.02 in0.5 mm
03:05 PM 49.0°F9.4°C 42.4°F5.8°C 78% Calm Calm -- 30.12 in1020.0 mb - 0.00 in0.0 mm 0.02 in0.5 mm
03:10 PM 49.0°F9.4°C 42.5°F5.8°C 78% Calm Calm 2.3 mph3.7 kmh 30.12 in1020.0 mb - 0.00 in0.0 mm 0.02 in0.5 mm
03:15 PM 49.1°F9.5°C 42.5°F5.8°C 78% Calm Calm -- 30.11 in1019.6 mb - 0.00 in0.0 mm 0.02 in0.5 mm
03:20 PM 49.1°F9.5°C 42.2°F5.7°C 77% 2.3 mph WSW3.7 kmh WSW 5.8 mph9.3 kmh 30.11 in1019.6 mb - 0.00 in0.0 mm 0.02 in0.5 mm
03:25 PM 49.0°F9.4°C 42.1°F5.6°C 77% 5.8 mph SW9.3 kmh SW 9.2 mph14.8 kmh 30.11 in1019.6 mb - 0.00 in0.0 mm 0.02 in0.5 mm
03:30 PM 48.7°F9.3°C 42.1°F5.6°C 78% 4.6 mph SW7.4 kmh SW 11.5 mph18.5 kmh 30.10 in1019.3 mb - 0.00 in0.0 mm 0.02 in0.5 mm
03:35 PM 48.5°F9.2°C 42.0°F5.6°C 78% 5.8 mph SW9.3 kmh SW 10.4 mph16.7 kmh 30.10 in1019.3 mb - 0.00 in0.0 mm 0.02 in0.5 mm
03:40 PM 48.5°F9.2°C 42.0°F5.6°C 78% 4.6 mph SW7.4 kmh SW 10.4 mph16.7 kmh 30.10 in1019.3 mb - 0.00 in0.0 mm 0.02 in0.5 mm
03:45 PM 48.4°F9.1°C 41.9°F5.5°C 78% 8.1 mph WSW13.0 kmh WSW 13.8 mph22.2 kmh 30.09 in1019.0 mb - 0.00 in0.0 mm 0.02 in0.5 mm
03:50 PM 48.3°F9.1°C 41.8°F5.4°C 78% 5.8 mph WSW9.3 kmh WSW 9.2 mph14.8 kmh 30.09 in1019.0 mb - 0.00 in0.0 mm 0.02 in0.5 mm
03:55 PM 48.3°F9.1°C 41.8°F5.4°C 78% 3.5 mph WSW5.6 kmh WSW 6.9 mph11.1 kmh 30.09 in1019.0 mb - 0.00 in0.0 mm 0.02 in0.5 mm
04:00 PM 48.2°F9.0°C 41.7°F5.4°C 78% 3.5 mph WSW5.6 kmh WSW 6.9 mph11.1 kmh 30.08 in1018.6 mb - 0.00 in0.0 mm 0.02 in0.5 mm
04:05 PM 48.3°F9.1°C 41.7°F5.4°C 78% 2.3 mph W3.7 kmh W 3.5 mph5.6 kmh 30.07 in1018.3 mb - 0.00 in0.0 mm 0.02 in0.5 mm
04:10 PM 48.3°F9.1°C 41.8°F5.4°C 78% 2.3 mph WSW3.7 kmh WSW 3.5 mph5.6 kmh 30.07 in1018.3 mb - 0.00 in0.0 mm 0.02 in0.5 mm
04:15 PM 48.3°F9.1°C 41.8°F5.4°C 78% 2.3 mph WSW3.7 kmh WSW 3.5 mph5.6 kmh 30.07 in1018.3 mb - 0.00 in0.0 mm 0.02 in0.5 mm
04:20 PM 48.3°F9.1°C 41.8°F5.4°C 78% 5.8 mph SW9.3 kmh SW 8.1 mph13.0 kmh 30.08 in1018.6 mb - 0.00 in0.0 mm 0.02 in0.5 mm
04:25 PM 48.2°F9.0°C 41.7°F5.4°C 78% 4.6 mph WSW7.4 kmh WSW 6.9 mph11.1 kmh 30.07 in1018.3 mb - 0.00 in0.0 mm 0.02 in0.5 mm
04:30 PM 48.2°F9.0°C 41.7°F5.4°C 78% 4.6 mph SW7.4 kmh SW 5.8 mph9.3 kmh 30.07 in1018.3 mb - 0.00 in0.0 mm 0.02 in0.5 mm
04:35 PM 48.1°F8.9°C 41.6°F5.3°C 78% 3.5 mph WSW5.6 kmh WSW 5.8 mph9.3 kmh 30.07 in1018.3 mb - 0.00 in0.0 mm 0.02 in0.5 mm
04:40 PM 48.0°F8.9°C 41.5°F5.3°C 78% 3.5 mph SW5.6 kmh SW 4.6 mph7.4 kmh 30.07 in1018.3 mb - 0.00 in0.0 mm 0.02 in0.5 mm
04:45 PM 47.9°F8.8°C 41.4°F5.2°C 78% 2.3 mph WSW3.7 kmh WSW 4.6 mph7.4 kmh 30.06 in1017.9 mb - 0.00 in0.0 mm 0.02 in0.5 mm
04:50 PM 47.9°F8.8°C 41.4°F5.2°C 78% 1.2 mph WSW1.9 kmh WSW 4.6 mph7.4 kmh 30.06 in1017.9 mb - 0.00 in0.0 mm 0.02 in0.5 mm
04:55 PM 47.8°F8.8°C 41.0°F5.0°C 77% 2.3 mph WSW3.7 kmh WSW 3.5 mph5.6 kmh 30.05 in1017.6 mb - 0.00 in0.0 mm 0.02 in0.5 mm
05:00 PM 47.8°F8.8°C 40.9°F4.9°C 77% 2.3 mph WSW3.7 kmh WSW 2.3 mph3.7 kmh 30.05 in1017.6 mb - 0.00 in0.0 mm 0.02 in0.5 mm
05:05 PM 47.8°F8.8°C 41.0°F5.0°C 77% 1.2 mph WSW1.9 kmh WSW 1.2 mph1.9 kmh 30.05 in1017.6 mb - 0.00 in0.0 mm 0.02 in0.5 mm
05:10 PM 47.8°F8.8°C 40.9°F4.9°C 77% Calm Calm -- 30.04 in1017.3 mb - 0.00 in0.0 mm 0.02 in0.5 mm
05:15 PM 47.8°F8.8°C 41.0°F5.0°C 77% Calm Calm -- 30.04 in1017.3 mb - 0.00 in0.0 mm 0.02 in0.5 mm
05:20 PM 47.9°F8.8°C 41.0°F5.0°C 77% 1.2 mph WSW1.9 kmh WSW 2.3 mph3.7 kmh 30.04 in1017.3 mb - 0.00 in0.0 mm 0.02 in0.5 mm
05:25 PM 47.9°F8.8°C 41.4°F5.2°C 78% Calm Calm 3.5 mph5.6 kmh 30.03 in1016.9 mb - 0.00 in0.0 mm 0.02 in0.5 mm
05:30 PM 48.0°F8.9°C 41.1°F5.1°C 77% 2.3 mph WSW3.7 kmh WSW 8.1 mph13.0 kmh 30.03 in1016.9 mb - 0.00 in0.0 mm 0.02 in0.5 mm
05:35 PM 48.1°F8.9°C 41.2°F5.1°C 77% 5.8 mph WSW9.3 kmh WSW 8.1 mph13.0 kmh 30.02 in1016.6 mb - 0.00 in0.0 mm 0.02 in0.5 mm
05:40 PM 48.2°F9.0°C 41.3°F5.2°C 77% 5.8 mph WSW9.3 kmh WSW 8.1 mph13.0 kmh 30.02 in1016.6 mb - 0.00 in0.0 mm 0.02 in0.5 mm
05:45 PM 48.3°F9.1°C 41.4°F5.2°C 77% 5.8 mph WSW9.3 kmh WSW 12.7 mph20.4 kmh 30.02 in1016.6 mb - 0.00 in0.0 mm 0.02 in0.5 mm
05:50 PM 48.4°F9.1°C 41.5°F5.3°C 77% 6.9 mph WSW11.1 kmh WSW 11.5 mph18.5 kmh 30.02 in1016.6 mb - 0.00 in0.0 mm 0.02 in0.5 mm
05:55 PM 48.4°F9.1°C 41.5°F5.3°C 77% 5.8 mph WSW9.3 kmh WSW 11.5 mph18.5 kmh 30.02 in1016.6 mb - 0.00 in0.0 mm 0.02 in0.5 mm
06:00 PM 48.4°F9.1°C 41.5°F5.3°C 77% 4.6 mph WSW7.4 kmh WSW 9.2 mph14.8 kmh 30.02 in1016.6 mb - 0.01 in0.3 mm 0.03 in0.8 mm
06:05 PM 48.4°F9.1°C 41.6°F5.3°C 77% 5.8 mph WSW9.3 kmh WSW 9.2 mph14.8 kmh 30.01 in1016.3 mb - 0.00 in0.0 mm 0.03 in0.8 mm
06:10 PM 48.5°F9.2°C 41.6°F5.3°C 77% 5.8 mph WSW9.3 kmh WSW 8.1 mph13.0 kmh 30.01 in1016.3 mb - 0.00 in0.0 mm 0.03 in0.8 mm
06:15 PM 48.5°F9.2°C 41.6°F5.3°C 77% 4.6 mph WSW7.4 kmh WSW 9.2 mph14.8 kmh 30.00 in1015.9 mb - 0.00 in0.0 mm 0.03 in0.8 mm
06:20 PM 48.6°F9.2°C 41.7°F5.4°C 77% 6.9 mph WSW11.1 kmh WSW 9.2 mph14.8 kmh 30.00 in1015.9 mb - 0.00 in0.0 mm 0.03 in0.8 mm
06:25 PM 48.6°F9.2°C 41.7°F5.4°C 77% 4.6 mph WSW7.4 kmh WSW 6.9 mph11.1 kmh 30.00 in1015.9 mb - 0.00 in0.0 mm 0.03 in0.8 mm
06:30 PM 48.6°F9.2°C 41.7°F5.4°C 77% 5.8 mph WSW9.3 kmh WSW 8.1 mph13.0 kmh 30.00 in1015.9 mb - 0.00 in0.0 mm 0.03 in0.8 mm
06:35 PM 48.6°F9.2°C 41.7°F5.4°C 77% 3.5 mph WSW5.6 kmh WSW 5.8 mph9.3 kmh 30.00 in1015.9 mb - 0.00 in0.0 mm 0.03 in0.8 mm
06:40 PM 48.6°F9.2°C 41.7°F5.4°C 77% 3.5 mph SW5.6 kmh SW 10.4 mph16.7 kmh 29.99 in1015.6 mb - 0.00 in0.0 mm 0.03 in0.8 mm
06:45 PM 48.7°F9.3°C 41.8°F5.4°C 77% 4.6 mph W7.4 kmh W 10.4 mph16.7 kmh 29.99 in1015.6 mb - 0.00 in0.0 mm 0.03 in0.8 mm
06:50 PM 48.8°F9.3°C 41.9°F5.5°C 77% 5.8 mph WSW9.3 kmh WSW 11.5 mph18.5 kmh 29.98 in1015.2 mb - 0.00 in0.0 mm 0.03 in0.8 mm
06:55 PM 48.8°F9.3°C 41.9°F5.5°C 77% 5.8 mph WSW9.3 kmh WSW 10.4 mph16.7 kmh 29.97 in1014.9 mb - 0.00 in0.0 mm 0.03 in0.8 mm
07:00 PM 48.9°F9.4°C 42.0°F5.6°C 77% 5.8 mph WSW9.3 kmh WSW 10.4 mph16.7 kmh 29.97 in1014.9 mb - 0.00 in0.0 mm 0.03 in0.8 mm
07:05 PM 48.9°F9.4°C 42.0°F5.6°C 77% 4.6 mph WSW7.4 kmh WSW 8.1 mph13.0 kmh 29.97 in1014.9 mb - 0.00 in0.0 mm 0.03 in0.8 mm
07:10 PM 49.0°F9.4°C 42.1°F5.6°C 77% 4.6 mph WSW7.4 kmh WSW 5.8 mph9.3 kmh 29.96 in1014.6 mb - 0.00 in0.0 mm 0.03 in0.8 mm
07:15 PM 49.1°F9.5°C 42.2°F5.7°C 77% 2.3 mph WSW3.7 kmh WSW 4.6 mph7.4 kmh 29.96 in1014.6 mb - 0.00 in0.0 mm 0.03 in0.8 mm
07:20 PM 49.1°F9.5°C 42.2°F5.7°C 77% 4.6 mph SW7.4 kmh SW 8.1 mph13.0 kmh 29.95 in1014.2 mb - 0.00 in0.0 mm 0.03 in0.8 mm
07:25 PM 49.1°F9.5°C 42.2°F5.7°C 77% 2.3 mph SW3.7 kmh SW 4.6 mph7.4 kmh 29.95 in1014.2 mb - 0.00 in0.0 mm 0.03 in0.8 mm
07:30 PM 49.1°F9.5°C 42.2°F5.7°C 77% 4.6 mph WSW7.4 kmh WSW 5.8 mph9.3 kmh 29.95 in1014.2 mb - 0.00 in0.0 mm 0.03 in0.8 mm
07:35 PM 49.1°F9.5°C 42.2°F5.7°C 77% 2.3 mph WSW3.7 kmh WSW 3.5 mph5.6 kmh 29.95 in1014.2 mb - 0.00 in0.0 mm 0.03 in0.8 mm
07:40 PM 49.2°F9.6°C 42.3°F5.7°C 77% 3.5 mph WSW5.6 kmh WSW 6.9 mph11.1 kmh 29.94 in1013.9 mb - 0.00 in0.0 mm 0.03 in0.8 mm
07:45 PM 49.2°F9.6°C 42.3°F5.7°C 77% 2.3 mph WSW3.7 kmh WSW 3.5 mph5.6 kmh 29.94 in1013.9 mb - 0.00 in0.0 mm 0.03 in0.8 mm
07:50 PM 49.3°F9.6°C 42.4°F5.8°C 77% 2.3 mph WSW3.7 kmh WSW 3.5 mph5.6 kmh 29.93 in1013.5 mb - 0.00 in0.0 mm 0.03 in0.8 mm
07:55 PM 49.3°F9.6°C 42.4°F5.8°C 77% 3.5 mph WSW5.6 kmh WSW 8.1 mph13.0 kmh 29.93 in1013.5 mb - 0.00 in0.0 mm 0.03 in0.8 mm
08:00 PM 49.4°F9.7°C 42.8°F6.0°C 78% 3.5 mph WSW5.6 kmh WSW 3.5 mph5.6 kmh 29.92 in1013.2 mb - 0.00 in0.0 mm 0.03 in0.8 mm
08:05 PM 49.5°F9.7°C 42.9°F6.1°C 78% 3.5 mph WSW5.6 kmh WSW 5.8 mph9.3 kmh 29.91 in1012.9 mb - 0.00 in0.0 mm 0.03 in0.8 mm
08:10 PM 49.5°F9.7°C 42.6°F5.9°C 77% 2.3 mph WSW3.7 kmh WSW 4.6 mph7.4 kmh 29.91 in1012.9 mb - 0.00 in0.0 mm 0.03 in0.8 mm
08:15 PM 49.5°F9.7°C 42.6°F5.9°C 77% 1.2 mph SW1.9 kmh SW 4.6 mph7.4 kmh 29.91 in1012.9 mb - 0.00 in0.0 mm 0.03 in0.8 mm
08:20 PM 49.5°F9.7°C 42.9°F6.1°C 78% 2.3 mph WSW3.7 kmh WSW 5.8 mph9.3 kmh 29.90 in1012.5 mb - 0.00 in0.0 mm 0.03 in0.8 mm
08:25 PM 49.6°F9.8°C 43.0°F6.1°C 78% 2.3 mph WSW3.7 kmh WSW 3.5 mph5.6 kmh 29.90 in1012.5 mb - 0.00 in0.0 mm 0.03 in0.8 mm
08:30 PM 49.6°F9.8°C 43.0°F6.1°C 78% 2.3 mph WSW3.7 kmh WSW 3.5 mph5.6 kmh 29.89 in1012.2 mb - 0.00 in0.0 mm 0.03 in0.8 mm
08:35 PM 49.6°F9.8°C 43.1°F6.2°C 78% 3.5 mph WSW5.6 kmh WSW 3.5 mph5.6 kmh 29.89 in1012.2 mb - 0.00 in0.0 mm 0.03 in0.8 mm
08:40 PM 49.7°F9.8°C 43.1°F6.2°C 78% 4.6 mph WSW7.4 kmh WSW 9.2 mph14.8 kmh 29.89 in1012.2 mb - 0.00 in0.0 mm 0.03 in0.8 mm
08:45 PM 49.9°F9.9°C 43.3°F6.3°C 78% 5.8 mph W9.3 kmh W 9.2 mph14.8 kmh 29.88 in1011.9 mb - 0.00 in0.0 mm 0.03 in0.8 mm
08:50 PM 50.0°F10.0°C 43.4°F6.3°C 78% 5.8 mph WSW9.3 kmh WSW 9.2 mph14.8 kmh 29.88 in1011.9 mb - 0.01 in0.3 mm 0.03 in0.8 mm
08:55 PM 50.2°F10.1°C 43.6°F6.4°C 78% 4.6 mph W7.4 kmh W 9.2 mph14.8 kmh 29.87 in1011.5 mb - 0.01 in0.3 mm 0.03 in0.8 mm
09:00 PM 50.3°F10.2°C 43.7°F6.5°C 78% 4.6 mph WSW7.4 kmh WSW 6.9 mph11.1 kmh 29.86 in1011.2 mb - 0.00 in0.0 mm 0.03 in0.8 mm
09:05 PM 50.3°F10.2°C 43.7°F6.5°C 78% 2.3 mph WSW3.7 kmh WSW 5.8 mph9.3 kmh 29.86 in1011.2 mb - 0.00 in0.0 mm 0.03 in0.8 mm
09:10 PM 50.4°F10.2°C 43.8°F6.6°C 78% 4.6 mph WSW7.4 kmh WSW 5.8 mph9.3 kmh 29.85 in1010.8 mb - 0.00 in0.0 mm 0.03 in0.8 mm
09:15 PM 50.5°F10.3°C 43.9°F6.6°C 78% 3.5 mph W5.6 kmh W 5.8 mph9.3 kmh 29.85 in1010.8 mb - 0.00 in0.0 mm 0.03 in0.8 mm
09:20 PM 50.6°F10.3°C 44.0°F6.7°C 78% 2.3 mph WSW3.7 kmh WSW 8.1 mph13.0 kmh 29.84 in1010.5 mb - 0.00 in0.0 mm 0.03 in0.8 mm
09:25 PM 50.7°F10.4°C 44.1°F6.7°C 78% 3.5 mph WSW5.6 kmh WSW 5.8 mph9.3 kmh 29.84 in1010.5 mb - 0.00 in0.0 mm 0.03 in0.8 mm
09:30 PM 50.9°F10.5°C 44.3°F6.8°C 78% 3.5 mph WSW5.6 kmh WSW 6.9 mph11.1 kmh 29.84 in1010.5 mb - 0.00 in0.0 mm 0.03 in0.8 mm
09:35 PM 51.0°F10.6°C 44.4°F6.9°C 78% 3.5 mph WSW5.6 kmh WSW 5.8 mph9.3 kmh 29.83 in1010.2 mb - 0.00 in0.0 mm 0.03 in0.8 mm
09:40 PM 51.1°F10.6°C 44.5°F6.9°C 78% 2.3 mph W3.7 kmh W 3.5 mph5.6 kmh 29.83 in1010.2 mb - 0.00 in0.0 mm 0.03 in0.8 mm
09:45 PM 51.1°F10.6°C 44.5°F6.9°C 78% Calm Calm 1.2 mph1.9 kmh 29.82 in1009.8 mb - 0.00 in0.0 mm 0.03 in0.8 mm
09:50 PM 51.2°F10.7°C 44.6°F7.0°C 78% 1.2 mph WSW1.9 kmh WSW 2.3 mph3.7 kmh 29.82 in1009.8 mb - 0.00 in0.0 mm 0.03 in0.8 mm
09:55 PM 51.4°F10.8°C 44.8°F7.1°C 78% 3.5 mph WSW5.6 kmh WSW 3.5 mph5.6 kmh 29.82 in1009.8 mb - 0.00 in0.0 mm 0.03 in0.8 mm
10:00 PM 51.6°F10.9°C 45.0°F7.2°C 78% 1.2 mph WSW1.9 kmh WSW 3.5 mph5.6 kmh 29.82 in1009.8 mb - 0.00 in0.0 mm 0.03 in0.8 mm
10:05 PM 51.8°F11.0°C 45.1°F7.3°C 78% 2.3 mph NW3.7 kmh NW 3.5 mph5.6 kmh 29.82 in1009.8 mb - 0.00 in0.0 mm 0.03 in0.8 mm
10:10 PM 51.9°F11.1°C 45.6°F7.6°C 79% 1.2 mph NW1.9 kmh NW 3.5 mph5.6 kmh 29.82 in1009.8 mb - 0.00 in0.0 mm 0.03 in0.8 mm
10:15 PM 52.0°F11.1°C 45.7°F7.6°C 79% 2.3 mph WSW3.7 kmh WSW 2.3 mph3.7 kmh 29.82 in1009.8 mb - 0.01 in0.3 mm 0.04 in1.0 mm
10:20 PM 52.1°F11.2°C 45.8°F7.7°C 79% Calm Calm 1.2 mph1.9 kmh 29.81 in1009.5 mb - 0.00 in0.0 mm 0.04 in1.0 mm
10:25 PM 52.1°F11.2°C 45.8°F7.7°C 79% 2.3 mph NW3.7 kmh NW 3.5 mph5.6 kmh 29.81 in1009.5 mb - 0.00 in0.0 mm 0.04 in1.0 mm
10:30 PM 52.2°F11.2°C 45.9°F7.7°C 79% Calm Calm -- 29.81 in1009.5 mb - 0.00 in0.0 mm 0.04 in1.0 mm
10:35 PM 52.4°F11.3°C 46.1°F7.8°C 79% Calm Calm -- 29.81 in1009.5 mb - 0.00 in0.0 mm 0.04 in1.0 mm
10:40 PM 52.5°F11.4°C 46.1°F7.8°C 79% Calm Calm -- 29.81 in1009.5 mb - 0.00 in0.0 mm 0.04 in1.0 mm
10:45 PM 52.6°F11.4°C 46.3°F7.9°C 79% Calm Calm 3.5 mph5.6 kmh 29.81 in1009.5 mb - 0.00 in0.0 mm 0.04 in1.0 mm
10:50 PM 52.8°F11.6°C 46.5°F8.1°C 79% 1.2 mph NW1.9 kmh NW 1.2 mph1.9 kmh 29.81 in1009.5 mb - 0.00 in0.0 mm 0.04 in1.0 mm
10:55 PM 53.0°F11.7°C 46.7°F8.2°C 79% 4.6 mph W7.4 kmh W 10.4 mph16.7 kmh 29.81 in1009.5 mb - 0.00 in0.0 mm 0.04 in1.0 mm
11:00 PM 53.9°F12.2°C 47.5°F8.6°C 79% 5.8 mph W9.3 kmh W 11.5 mph18.5 kmh 29.80 in1009.1 mb - 0.00 in0.0 mm 0.06 in1.5 mm
11:05 PM 54.4°F12.4°C 48.0°F8.9°C 79% 3.5 mph WSW5.6 kmh WSW 12.7 mph20.4 kmh 29.80 in1009.1 mb - 0.00 in0.0 mm 0.06 in1.5 mm
11:10 PM 54.7°F12.6°C 48.3°F9.1°C 79% 4.6 mph W7.4 kmh W 10.4 mph16.7 kmh 29.80 in1009.1 mb - 0.00 in0.0 mm 0.06 in1.5 mm
11:15 PM 54.9°F12.7°C 48.5°F9.2°C 79% 3.5 mph WNW5.6 kmh WNW 8.1 mph13.0 kmh 29.80 in1009.1 mb - 0.00 in0.0 mm 0.06 in1.5 mm
11:20 PM 54.9°F12.7°C 48.5°F9.2°C 79% 4.6 mph W7.4 kmh W 8.1 mph13.0 kmh 29.80 in1009.1 mb - 0.00 in0.0 mm 0.06 in1.5 mm
11:25 PM 54.9°F12.7°C 48.5°F9.2°C 79% 3.5 mph W5.6 kmh W 9.2 mph14.8 kmh 29.80 in1009.1 mb - 0.00 in0.0 mm 0.06 in1.5 mm
11:30 PM 54.9°F12.7°C 48.5°F9.2°C 79% 4.6 mph W7.4 kmh W 6.9 mph11.1 kmh 29.80 in1009.1 mb - 0.00 in0.0 mm 0.06 in1.5 mm
11:35 PM 54.8°F12.7°C 48.4°F9.1°C 79% 3.5 mph WNW5.6 kmh WNW 3.5 mph5.6 kmh 29.80 in1009.1 mb - 0.00 in0.0 mm 0.06 in1.5 mm
11:40 PM 54.7°F12.6°C 48.0°F8.9°C 78% 5.8 mph WSW9.3 kmh WSW 11.5 mph18.5 kmh 29.80 in1009.1 mb - 0.00 in0.0 mm 0.06 in1.5 mm
11:45 PM 54.7°F12.6°C 48.0°F8.9°C 78% 4.6 mph W7.4 kmh W 5.8 mph9.3 kmh 29.80 in1009.1 mb - 0.00 in0.0 mm 0.06 in1.5 mm
11:50 PM 54.7°F12.6°C 48.0°F8.9°C 78% 3.5 mph WSW5.6 kmh WSW 6.9 mph11.1 kmh 29.81 in1009.5 mb - 0.00 in0.0 mm 0.06 in1.5 mm
11:55 PM 54.7°F12.6°C 48.0°F8.9°C 78% 2.3 mph NW3.7 kmh NW 2.3 mph3.7 kmh 29.80 in1009.1 mb - 0.00 in0.0 mm 0.06 in1.5 mm